createdAt,value
2022-12-01T00:01:45.085Z,102434.31
2022-12-01T00:04:16.119Z,102434.31
2022-12-01T00:06:47.194Z,102433.36
2022-12-01T00:09:36.064Z,102439.34
2022-12-01T00:12:07.378Z,102447.16
2022-12-01T00:14:38.615Z,102440.20
2022-12-01T00:17:09.791Z,102443.56
2022-12-01T00:19:41.265Z,102433.64
2022-12-01T00:22:12.191Z,102440.30
2022-12-01T00:24:43.175Z,102439.25
2022-12-01T00:27:13.986Z,102439.25
2022-12-01T00:29:44.846Z,102439.25
2022-12-01T00:32:15.944Z,102436.09
2022-12-01T00:34:46.852Z,102430.10
2022-12-01T00:37:17.742Z,102438.45
2022-12-01T00:39:49.150Z,102438.17
2022-12-01T00:42:21.273Z,102435.36
2022-12-01T00:44:52.122Z,102432.61
2022-12-01T00:47:23.075Z,102433.51
2022-12-01T00:49:54.024Z,102430.95
2022-12-01T00:52:25.045Z,102429.97
2022-12-01T00:54:55.902Z,102438.61
2022-12-01T00:57:26.957Z,102434.37
2022-12-01T00:59:58.246Z,102429.01
2022-12-01T01:02:29.162Z,102425.47
2022-12-01T01:05:00.245Z,102426.07
2022-12-01T01:07:32.311Z,102423.52
2022-12-01T01:10:03.225Z,102427.06
2022-12-01T01:12:34.005Z,102417.02
2022-12-01T01:15:05.858Z,102432.33
2022-12-01T01:17:36.656Z,102427.92
2022-12-01T01:20:07.960Z,102432.16
2022-12-01T01:22:38.756Z,102429.52
2022-12-01T01:25:10.241Z,102425.47
2022-12-01T01:27:41.171Z,102430.66
2022-12-01T01:30:12.614Z,102424.67
2022-12-01T01:32:43.474Z,102421.52
2022-12-01T01:35:14.398Z,102424.96
2022-12-01T01:37:45.300Z,102434.11
2022-12-01T01:40:17.099Z,102421.27
2022-12-01T01:42:47.927Z,102419.41
2022-12-01T01:45:20.356Z,102416.47
2022-12-01T01:47:52.976Z,102416.21
2022-12-01T01:50:25.265Z,102414.72
2022-12-01T01:53:00.305Z,102410.31
2022-12-01T01:55:32.669Z,102413.16
2022-12-01T01:58:05.256Z,102418.26
2022-12-01T02:00:37.197Z,102418.26
2022-12-01T02:03:09.183Z,102419.31
2022-12-01T02:05:40.632Z,102419.12
2022-12-01T02:08:13.255Z,102415.97
2022-12-01T02:11:01.740Z,102414.02
2022-12-01T02:13:51.435Z,102416.37
2022-12-01T02:16:26.486Z,102419.81
2022-12-01T02:19:04.872Z,102431.41
2022-12-01T02:21:55.615Z,102427.77
2022-12-01T02:24:33.727Z,102430.16
2022-12-01T02:27:22.693Z,102425.76
2022-12-01T02:29:57.598Z,102426.72
2022-12-01T02:32:36.461Z,102426.45
2022-12-01T02:35:17.868Z,102427.31
2022-12-01T02:38:02.198Z,102433.67
2022-12-01T02:40:35.021Z,102428.77
2022-12-01T02:43:10.171Z,102410.82
2022-12-01T02:45:42.515Z,102412.41
2022-12-01T02:48:14.973Z,102418.17
2022-12-01T02:50:46.743Z,102418.88
2022-12-01T02:53:19.141Z,102421.42
2022-12-01T02:55:54.382Z,102418.11
2022-12-01T02:58:25.571Z,102416.42
2022-12-01T03:01:00.972Z,102414.96
2022-12-01T03:03:42.463Z,102414.06
2022-12-01T03:06:15.266Z,102408.87
2022-12-01T03:08:47.578Z,102408.07
2022-12-01T03:11:21.566Z,102414.86
2022-12-01T03:13:54.203Z,102410.52
2022-12-01T03:16:32.683Z,102421.02
2022-12-01T03:19:07.658Z,102410.82
2022-12-01T03:21:41.771Z,102413.16
2022-12-01T03:24:14.157Z,102400.20
2022-12-01T03:26:46.676Z,102400.81
2022-12-01T03:29:19.128Z,102403.27
2022-12-01T03:31:51.476Z,102402.56
2022-12-01T03:34:24.506Z,102397.27
2022-12-01T03:36:59.809Z,102399.66
2022-12-01T03:39:33.751Z,102402.21
2022-12-01T03:42:06.856Z,102403.77
2022-12-01T03:44:39.122Z,102406.31
2022-12-01T03:47:14.982Z,102405.72
2022-12-01T03:49:47.396Z,102401.61
2022-12-01T03:52:23.473Z,102403.17
2022-12-01T03:55:02.080Z,102404.32
2022-12-01T03:57:34.899Z,102397.47
2022-12-01T04:00:07.063Z,102398.36
2022-12-01T04:02:40.492Z,102405.22
2022-12-01T04:05:11.672Z,102402.77
2022-12-01T04:07:43.452Z,102403.72
2022-12-01T04:10:14.782Z,102405.56
2022-12-01T04:12:46.014Z,102410.51
2022-12-01T04:15:17.253Z,102407.36
2022-12-01T04:17:48.702Z,102408.22
2022-12-01T04:20:19.601Z,102416.86
2022-12-01T04:22:50.848Z,102403.31
2022-12-01T04:25:22.155Z,102406.75
2022-12-01T04:27:53.455Z,102407.80
2022-12-01T04:30:25.327Z,102412.11
2022-12-01T04:32:56.593Z,102412.30
2022-12-01T04:35:28.164Z,102411.16
2022-12-01T04:37:59.391Z,102410.26
2022-12-01T04:40:30.609Z,102411.91
2022-12-01T04:43:01.664Z,102412.55
2022-12-01T04:45:32.655Z,102409.91
2022-12-01T04:48:03.615Z,102408.12
2022-12-01T04:50:34.757Z,102403.02
2022-12-01T04:53:05.878Z,102411.41
2022-12-01T04:55:39.763Z,102408.95
2022-12-01T04:58:11.087Z,102410.70
2022-12-01T05:00:43.498Z,102405.55
2022-12-01T05:03:16.036Z,102405.45
2022-12-01T05:05:47.092Z,102412.30
2022-12-01T05:08:18.386Z,102415.66
2022-12-01T05:10:49.720Z,102414.86
2022-12-01T05:13:21.202Z,102411.60
2022-12-01T05:15:56.359Z,102411.60
2022-12-01T05:18:28.203Z,102415.05
2022-12-01T05:20:59.744Z,102416.00
2022-12-01T05:23:33.193Z,102421.30
2022-12-01T05:26:05.977Z,102421.49
2022-12-01T05:28:37.702Z,102428.89
2022-12-01T05:31:08.868Z,102423.36
2022-12-01T05:33:40.348Z,102421.00
2022-12-01T05:36:11.388Z,102418.70
2022-12-01T05:41:22.634Z,102420.13
2022-12-01T05:43:54.822Z,102430.87
2022-12-01T05:46:25.864Z,102429.11
2022-12-01T05:48:57.597Z,102429.45
2022-12-01T05:51:30.226Z,102435.73
2022-12-01T05:54:01.271Z,102442.31
2022-12-01T05:56:32.851Z,102444.25
2022-12-01T05:59:04.175Z,102445.24
2022-12-01T06:01:35.692Z,102445.48
2022-12-01T06:04:07.308Z,102442.31
2022-12-01T06:06:38.815Z,102452.01
2022-12-01T06:09:10.261Z,102445.33
2022-12-01T06:11:59.273Z,102451.58
2022-12-01T06:14:30.794Z,102447.41
2022-12-01T06:17:03.211Z,102456.06
2022-12-01T06:19:34.761Z,102458.18
2022-12-01T06:22:06.901Z,102460.11
2022-12-01T06:24:38.013Z,102457.97
2022-12-01T06:27:10.127Z,102451.26
2022-12-01T06:29:42.375Z,102454.98
2022-12-01T06:32:13.874Z,102451.08
2022-12-01T06:34:44.758Z,102449.65
2022-12-01T06:37:16.205Z,102455.08
2022-12-01T06:39:48.125Z,102461.64
2022-12-01T06:42:19.779Z,102464.78
2022-12-01T06:44:51.834Z,102460.56
2022-12-01T06:47:23.482Z,102455.84
2022-12-01T06:49:56.509Z,102450.41
2022-12-01T06:52:28.967Z,102457.53
2022-12-01T06:55:00.761Z,102461.55
2022-12-01T06:57:32.114Z,102466.12
2022-12-01T07:00:04.595Z,102456.10
2022-12-01T07:02:37.280Z,102457.25
2022-12-01T07:05:08.609Z,102450.67
2022-12-01T07:07:40.476Z,102451.79
2022-12-01T07:10:12.481Z,102449.56
2022-12-01T07:12:43.771Z,102444.73
2022-12-01T07:15:14.990Z,102447.55
2022-12-01T07:17:46.135Z,102442.97
2022-12-01T07:20:17.049Z,102440.30
2022-12-01T07:22:48.475Z,102435.48
2022-12-01T07:25:19.573Z,102440.64
2022-12-01T07:27:50.924Z,102442.98
2022-12-01T07:30:28.102Z,102441.81
2022-12-01T07:32:55.883Z,102448.23
2022-12-01T07:35:27.521Z,102453.59
2022-12-01T07:37:59.152Z,102451.30
2022-12-01T07:40:30.540Z,102445.58
2022-12-01T07:43:02.252Z,102445.22
2022-12-01T07:45:33.566Z,102446.86
2022-12-01T07:48:05.323Z,102451.36
2022-12-01T07:50:36.594Z,102451.16
2022-12-01T07:53:08.377Z,102447.27
2022-12-01T07:55:39.867Z,102444.30
2022-12-01T07:58:11.118Z,102444.38
2022-12-01T08:00:42.093Z,102448.41
2022-12-01T08:03:13.150Z,102442.41
2022-12-01T08:05:44.278Z,102456.11
2022-12-01T08:08:16.328Z,102451.94
2022-12-01T08:10:47.411Z,102444.68
2022-12-01T08:13:18.202Z,102440.74
2022-12-01T08:15:49.225Z,102446.02
2022-12-01T08:18:21.189Z,102443.33
2022-12-01T08:20:53.125Z,102436.86
2022-12-01T08:23:24.542Z,102443.15
2022-12-01T08:25:55.616Z,102441.05
2022-12-01T08:28:27.350Z,102449.84
2022-12-01T08:30:59.339Z,102434.51
2022-12-01T08:33:31.702Z,102438.31
2022-12-01T08:36:03.322Z,102436.98
2022-12-01T08:38:35.275Z,102432.07
2022-12-01T08:41:08.396Z,102441.61
2022-12-01T08:43:57.334Z,102430.57
2022-12-01T08:46:14.316Z,102434.89
2022-12-01T08:48:45.602Z,102429.73
2022-12-01T08:51:17.832Z,102435.84
2022-12-01T08:53:50.551Z,102439.72
2022-12-01T08:56:26.382Z,102436.71
2022-12-01T08:58:58.572Z,102433.77
2022-12-01T09:01:29.824Z,102431.81
2022-12-01T09:04:09.247Z,102435.17
2022-12-01T09:06:42.335Z,102434.31
2022-12-01T09:09:17.902Z,102420.64
2022-12-01T09:11:49.589Z,102414.61
2022-12-01T09:14:21.486Z,102417.17
2022-12-01T09:16:52.906Z,102410.15
2022-12-01T09:19:25.317Z,102417.83
2022-12-01T09:21:56.713Z,102421.25
2022-12-01T09:24:28.211Z,102412.00
2022-12-01T09:27:02.062Z,102401.81
2022-12-01T09:29:33.624Z,102413.13
2022-12-01T09:32:05.247Z,102421.02
2022-12-01T09:34:37.088Z,102408.36
2022-12-01T09:37:09.275Z,102412.05
2022-12-01T09:39:42.361Z,102405.33
2022-12-01T09:42:15.684Z,102401.20
2022-12-01T09:44:53.645Z,102404.70
2022-12-01T09:47:29.593Z,102409.09
2022-12-01T09:50:08.804Z,102401.44
2022-12-01T09:52:45.231Z,102398.11
2022-12-01T09:55:17.492Z,102404.20
2022-12-01T09:57:49.839Z,102410.14
2022-12-01T10:00:22.378Z,102411.17
2022-12-01T10:02:57.883Z,102414.66
2022-12-01T10:05:30.342Z,102409.78
2022-12-01T10:08:03.763Z,102408.06
2022-12-01T10:10:36.730Z,102411.82
2022-12-01T10:13:09.737Z,102402.16
2022-12-01T10:15:45.367Z,102410.61
2022-12-01T10:18:17.652Z,102410.64
2022-12-01T10:20:50.043Z,102407.30
2022-12-01T10:23:32.952Z,102413.34
2022-12-01T10:26:05.975Z,102411.82
2022-12-01T10:28:38.591Z,102407.91
2022-12-01T10:31:11.368Z,102410.27
2022-12-01T10:33:47.220Z,102396.58
2022-12-01T10:36:18.186Z,102407.72
2022-12-01T10:38:49.098Z,102403.88
2022-12-01T10:41:21.663Z,102391.68
2022-12-01T10:43:53.260Z,102388.98
2022-12-01T10:46:28.879Z,102389.23
2022-12-01T10:49:01.140Z,102394.31
2022-12-01T10:51:32.113Z,102388.09
2022-12-01T10:54:11.723Z,102392.11
2022-12-01T10:56:44.122Z,102388.45
2022-12-01T10:59:31.992Z,102393.34
2022-12-01T11:02:03.913Z,102382.86
2022-12-01T11:04:49.421Z,102386.20
2022-12-01T11:07:22.448Z,102383.57
2022-12-01T11:09:57.804Z,102378.16
2022-12-01T11:12:28.895Z,102384.73
2022-12-01T11:15:00.575Z,102389.56
2022-12-01T11:17:46.071Z,102389.30
2022-12-01T11:20:24.174Z,102389.11
2022-12-01T11:23:13.497Z,102377.89
2022-12-01T11:25:45.966Z,102380.62
2022-12-01T11:28:19.809Z,102379.97
2022-12-01T11:30:56.561Z,102373.28
2022-12-01T11:33:25.857Z,102374.23
2022-12-01T11:35:56.907Z,102375.20
2022-12-01T11:38:30.329Z,102377.84
2022-12-01T11:41:02.190Z,102373.52
2022-12-01T11:43:34.912Z,102373.39
2022-12-01T11:46:10.206Z,102364.63
2022-12-01T11:48:41.595Z,102373.13
2022-12-01T11:51:14.490Z,102384.23
2022-12-01T11:53:46.561Z,102385.89
2022-12-01T11:56:28.969Z,102386.66
2022-12-01T11:59:05.353Z,102383.20
2022-12-01T12:01:44.189Z,102382.92
2022-12-01T12:04:32.963Z,102385.31
2022-12-01T12:07:12.037Z,102391.81
2022-12-01T12:09:56.621Z,102388.91
2022-12-01T12:12:35.830Z,102390.31
2022-12-01T12:15:08.827Z,102380.55
2022-12-01T12:17:50.659Z,102375.16
2022-12-01T12:20:26.341Z,102380.02
2022-12-01T12:23:10.683Z,102385.60
2022-12-01T12:25:49.937Z,102388.77
2022-12-01T12:28:26.102Z,102388.41
2022-12-01T12:31:15.013Z,102389.80
2022-12-01T12:33:48.161Z,102378.33
2022-12-01T12:36:24.321Z,102378.75
2022-12-01T12:38:57.444Z,102385.13
2022-12-01T12:41:41.794Z,102389.03
2022-12-01T12:44:24.032Z,102395.55
2022-12-01T12:47:05.625Z,102396.02
2022-12-01T12:49:47.586Z,102399.13
2022-12-01T12:52:24.075Z,102397.06
2022-12-01T12:54:56.897Z,102399.30
2022-12-01T12:57:33.034Z,102403.48
2022-12-01T13:00:06.464Z,102399.70
2022-12-01T13:02:39.584Z,102389.88
2022-12-01T13:05:12.323Z,102398.15
2022-12-01T13:07:50.479Z,102393.61
2022-12-01T13:10:23.782Z,102397.78
2022-12-01T13:12:59.594Z,102394.95
2022-12-01T13:15:31.728Z,102397.38
2022-12-01T13:18:05.210Z,102389.56
2022-12-01T13:20:37.922Z,102392.91
2022-12-01T13:23:10.966Z,102391.16
2022-12-01T13:25:43.592Z,102396.15
2022-12-01T13:28:16.237Z,102397.71
2022-12-01T13:31:05.415Z,102393.17
2022-12-01T13:33:37.826Z,102390.45
2022-12-01T13:38:43.344Z,102401.39
2022-12-01T13:41:21.946Z,102400.45
2022-12-01T13:43:54.684Z,102403.09
2022-12-01T13:46:27.466Z,102390.34
2022-12-01T13:48:59.771Z,102387.84
2022-12-01T13:51:32.456Z,102392.98
2022-12-01T13:54:05.708Z,102398.11
2022-12-01T13:56:39.473Z,102389.52
2022-12-01T13:59:29.075Z,102397.38
2022-12-01T14:02:17.337Z,102397.30
2022-12-01T14:04:49.236Z,102405.92
2022-12-01T14:07:25.117Z,102392.35
2022-12-01T14:09:57.497Z,102391.57
2022-12-01T14:12:32.106Z,102390.68
2022-12-01T14:15:04.469Z,102392.28
2022-12-01T14:17:36.826Z,102387.89
2022-12-01T14:20:09.208Z,102390.41
2022-12-01T14:22:42.229Z,102394.58
2022-12-01T14:25:23.828Z,102392.68
2022-12-01T14:27:56.748Z,102383.23
2022-12-01T14:30:38.828Z,102380.44
2022-12-01T14:33:27.885Z,102381.03
2022-12-01T14:36:03.082Z,102372.99
2022-12-01T14:38:34.701Z,102379.45
2022-12-01T14:41:09.964Z,102369.70
2022-12-01T14:44:00.148Z,102370.36
2022-12-01T14:46:33.272Z,102370.31
2022-12-01T14:49:05.939Z,102369.34
2022-12-01T14:51:37.403Z,102370.90
2022-12-01T14:54:10.493Z,102361.58
2022-12-01T14:56:42.981Z,102357.27
2022-12-01T14:59:22.886Z,102360.64
2022-12-01T15:01:55.180Z,102367.52
2022-12-01T15:04:26.455Z,102364.88
2022-12-01T15:06:57.665Z,102363.13
2022-12-01T15:09:36.189Z,102376.81
2022-12-01T15:12:04.051Z,102377.77
2022-12-01T15:14:36.245Z,102381.27
2022-12-01T15:17:09.323Z,102373.54
2022-12-01T15:19:42.133Z,102369.27
2022-12-01T15:22:15.020Z,102360.77
2022-12-01T15:24:46.628Z,102362.55
2022-12-01T15:27:31.086Z,102368.45
2022-12-01T15:30:04.290Z,102366.86
2022-12-01T15:32:38.684Z,102355.79
2022-12-01T15:35:11.103Z,102367.80
2022-12-01T15:37:46.507Z,102363.56
2022-12-01T15:43:02.553Z,102363.48
2022-12-01T15:45:35.533Z,102360.92
2022-12-01T15:48:08.458Z,102356.02
2022-12-01T15:50:46.227Z,102357.03
2022-12-01T15:53:22.269Z,102356.37
2022-12-01T15:55:58.728Z,102356.59
2022-12-01T15:58:31.842Z,102365.45
2022-12-01T16:01:04.834Z,102365.45
2022-12-01T16:03:37.443Z,102358.42
2022-12-01T16:06:11.620Z,102354.96
2022-12-01T16:08:43.170Z,102355.85
2022-12-01T16:11:15.740Z,102356.71
2022-12-01T16:14:00.963Z,102356.67
2022-12-01T16:16:33.458Z,102367.78
2022-12-01T16:19:11.950Z,102364.36
2022-12-01T16:21:44.706Z,102357.34
2022-12-01T16:24:23.325Z,102364.95
2022-12-01T16:26:56.191Z,102354.47
2022-12-01T16:29:28.511Z,102362.81
2022-12-01T16:34:46.307Z,102360.77
2022-12-01T16:37:10.134Z,102352.88
2022-12-01T16:39:42.092Z,102358.66
2022-12-01T16:42:16.499Z,102361.23
2022-12-01T16:44:48.583Z,102364.45
2022-12-01T16:47:24.363Z,102353.30
2022-12-01T16:49:55.355Z,102365.19
2022-12-01T16:54:59.867Z,102354.12
2022-12-01T16:57:31.610Z,102349.14
2022-12-01T17:00:02.619Z,102347.44
2022-12-01T17:02:33.871Z,102346.70
2022-12-01T17:05:05.476Z,102341.58
2022-12-01T17:07:36.551Z,102347.67
2022-12-01T17:10:08.440Z,102338.43
2022-12-01T17:12:39.678Z,102346.35
2022-12-01T17:15:11.932Z,102338.73
2022-12-01T17:17:42.772Z,102341.41
2022-12-01T17:20:14.309Z,102341.41
2022-12-01T17:22:45.275Z,102341.41
2022-12-01T17:25:16.373Z,102341.38
2022-12-01T17:27:47.263Z,102339.59
2022-12-01T17:30:18.679Z,102340.25
2022-12-01T17:32:49.807Z,102345.27
2022-12-01T17:35:21.568Z,102338.08
2022-12-01T17:37:52.520Z,102333.61
2022-12-01T17:40:23.781Z,102348.99
2022-12-01T17:42:55.173Z,102336.33
2022-12-01T17:45:26.082Z,102333.45
2022-12-01T17:47:56.945Z,102335.90
2022-12-01T17:50:28.801Z,102335.90
2022-12-01T17:52:59.766Z,102343.51
2022-12-01T17:55:30.683Z,102345.18
2022-12-01T17:58:03.604Z,102335.59
2022-12-01T18:00:34.743Z,102336.24
2022-12-01T18:03:05.695Z,102326.57
2022-12-01T18:05:36.819Z,102338.37
2022-12-01T18:08:07.755Z,102335.73
2022-12-01T18:10:39.695Z,102332.93
2022-12-01T18:13:11.071Z,102339.60
2022-12-01T18:15:42.242Z,102341.14
2022-12-01T18:18:13.486Z,102350.01
2022-12-01T18:20:44.824Z,102351.52
2022-12-01T18:23:16.030Z,102353.95
2022-12-01T18:25:47.228Z,102349.32
2022-12-01T18:28:18.134Z,102341.48
2022-12-01T18:30:49.708Z,102347.25
2022-12-01T18:33:21.239Z,102342.05
2022-12-01T18:35:53.245Z,102342.00
2022-12-01T18:38:25.855Z,102340.95
2022-12-01T18:41:00.247Z,102344.16
2022-12-01T18:43:31.710Z,102344.80
2022-12-01T18:46:03.548Z,102345.70
2022-12-01T18:48:35.302Z,102355.13
2022-12-01T18:51:07.310Z,102356.50
2022-12-01T18:53:38.481Z,102357.31
2022-12-01T18:56:12.014Z,102357.88
2022-12-01T18:58:43.268Z,102362.66
2022-12-01T19:01:21.822Z,102357.41
2022-12-01T19:03:52.847Z,102362.37
2022-12-01T19:06:24.104Z,102363.98
2022-12-01T19:08:55.640Z,102359.64
2022-12-01T19:11:26.550Z,102363.17
2022-12-01T19:13:58.151Z,102376.36
2022-12-01T19:16:31.346Z,102368.13
2022-12-01T19:19:02.769Z,102367.96
2022-12-01T19:21:33.649Z,102364.12
2022-12-01T19:24:04.470Z,102380.05
2022-12-01T19:26:35.416Z,102373.06
2022-12-01T19:29:06.391Z,102371.98
2022-12-01T19:31:37.484Z,102365.75
2022-12-01T19:34:08.392Z,102364.45
2022-12-01T19:36:39.195Z,102367.83
2022-12-01T19:39:10.376Z,102375.50
2022-12-01T19:41:41.115Z,102367.47
2022-12-01T19:44:12.826Z,102377.56
2022-12-01T19:46:43.623Z,102366.27
2022-12-01T19:49:14.514Z,102375.37
2022-12-01T19:51:45.416Z,102366.67
2022-12-01T19:54:17.934Z,102366.31
2022-12-01T19:56:49.211Z,102371.97
2022-12-01T19:59:20.048Z,102366.94
2022-12-01T20:01:51.201Z,102372.05
2022-12-01T20:04:22.253Z,102366.08
2022-12-01T20:06:53.218Z,102359.99
2022-12-01T20:09:24.045Z,102352.41
2022-12-01T20:11:54.861Z,102365.81
2022-12-01T20:14:25.790Z,102370.93
2022-12-01T20:16:57.417Z,102372.53
2022-12-01T20:19:28.231Z,102376.48
2022-12-01T20:21:59.338Z,102385.94
2022-12-01T20:24:30.618Z,102380.73
2022-12-01T20:27:01.730Z,102384.87
2022-12-01T20:29:32.632Z,102393.24
2022-12-01T20:32:03.606Z,102392.30
2022-12-01T20:34:35.871Z,102395.56
2022-12-01T20:37:06.813Z,102390.50
2022-12-01T20:39:39.456Z,102389.83
2022-12-01T20:42:10.440Z,102384.77
2022-12-01T20:44:41.485Z,102391.67
2022-12-01T20:47:12.634Z,102396.16
2022-12-01T20:49:44.142Z,102389.97
2022-12-01T20:52:15.936Z,102386.47
2022-12-01T20:54:47.421Z,102386.47
2022-12-01T20:57:18.531Z,102387.19
2022-12-01T20:59:49.668Z,102390.45
2022-12-01T21:02:20.931Z,102386.82
2022-12-01T21:04:56.313Z,102392.55
2022-12-01T21:07:24.851Z,102387.34
2022-12-01T21:09:55.879Z,102392.46
2022-12-01T21:12:45.711Z,102388.95
2022-12-01T21:15:17.938Z,102390.61
2022-12-01T21:17:50.186Z,102398.12
2022-12-01T21:20:22.583Z,102397.23
2022-12-01T21:22:54.235Z,102393.55
2022-12-01T21:25:25.714Z,102387.55
2022-12-01T21:27:58.164Z,102390.99
2022-12-01T21:30:30.330Z,102382.44
2022-12-01T21:33:03.040Z,102372.31
2022-12-01T21:35:34.576Z,102373.20
2022-12-01T21:38:06.943Z,102366.31
2022-12-01T21:40:37.813Z,102368.95
2022-12-01T21:43:19.771Z,102365.55
2022-12-01T21:45:55.157Z,102369.77
2022-12-01T21:48:26.511Z,102369.85
2022-12-01T21:51:04.665Z,102373.98
2022-12-01T21:53:37.300Z,102367.12
2022-12-01T21:56:09.999Z,102366.94
2022-12-01T21:58:41.323Z,102364.23
2022-12-01T22:01:19.459Z,102369.16
2022-12-01T22:03:50.972Z,102356.20
2022-12-01T22:06:30.378Z,102372.23
2022-12-01T22:09:00.486Z,102369.41
2022-12-01T22:11:31.676Z,102377.00
2022-12-01T22:14:04.113Z,102377.67
2022-12-01T22:16:36.343Z,102379.98
2022-12-01T22:19:11.348Z,102373.04
2022-12-01T22:21:49.176Z,102378.30
2022-12-01T22:24:21.692Z,102376.45
2022-12-01T22:26:56.797Z,102370.48
2022-12-01T22:29:29.631Z,102373.80
2022-12-01T22:32:08.023Z,102367.04
2022-12-01T22:34:43.224Z,102366.09
2022-12-01T22:37:24.027Z,102360.18
2022-12-01T22:39:56.435Z,102368.02
2022-12-01T22:42:33.968Z,102371.44
2022-12-01T22:45:22.574Z,102362.83
2022-12-01T22:47:55.001Z,102365.37
2022-12-01T22:50:33.369Z,102364.48
2022-12-01T22:53:05.711Z,102353.38
2022-12-01T22:55:36.557Z,102361.84
2022-12-01T22:58:21.246Z,102364.39
2022-12-01T23:00:53.570Z,102364.39
2022-12-01T23:03:24.542Z,102358.34
2022-12-01T23:05:57.224Z,102360.80
2022-12-01T23:08:28.112Z,102358.06
2022-12-01T23:10:59.034Z,102363.06
2022-12-01T23:13:29.969Z,102358.77
2022-12-01T23:16:01.001Z,102359.56
2022-12-01T23:18:32.306Z,102357.01
2022-12-01T23:21:04.159Z,102352.70
2022-12-01T23:23:36.754Z,102358.67
2022-12-01T23:26:08.627Z,102353.56
2022-12-01T23:28:39.495Z,102355.31
2022-12-01T23:31:10.881Z,102358.77
2022-12-01T23:33:41.880Z,102357.97
2022-12-01T23:36:17.375Z,102360.52
2022-12-01T23:38:49.084Z,102357.25
2022-12-01T23:41:25.513Z,102354.80
2022-12-01T23:43:55.475Z,102354.89
2022-12-01T23:46:27.956Z,102366.09
2022-12-01T23:49:03.213Z,102363.78
2022-12-01T23:51:35.573Z,102369.06
2022-12-01T23:54:10.994Z,102377.77
2022-12-01T23:56:41.922Z,102368.73
2022-12-01T23:59:14.114Z,102372.51
